Time;durP1;ratioP1;P1;durP2;ratioP2;P2;SDS_P1;SDS_P2;PMS_P1;PMS_P2;Temp;Humidity;BMP_temperature;BMP_pressure;BME280_temperature;BME280_humidity;BME280_pressure;Samples;Min_cycle;Max_cycle;Signal;HPM_P1;HPM_P2
2021/01/15 00:01:10;;;;;;;17.40;8.30;;;;;;;-10.96;65.35;99030.75;5030867;28;20037;-65
2021/01/15 00:03:37;;;;;;;18.38;7.57;;;;;;;-10.91;65.32;99027.25;5030923;28;20116;-63
2021/01/15 00:06:06;;;;;;;20.30;8.85;;;;;;;-10.91;65.00;99025.50;5029231;28;20059;-65
2021/01/15 00:08:39;;;;;;;20.05;8.20;;;;;;;-12.40;65.10;98783.59;5030396;28;20127;-64
2021/01/15 00:11:15;;;;;;;18.30;8.13;;;;;;;-10.97;65.38;99026.44;5031269;28;20077;-62
2021/01/15 00:13:40;;;;;;;22.10;7.75;;;;;;;-11.02;65.17;99014.41;5015885;28;20110;-63
2021/01/15 00:16:06;;;;;;;21.20;8.63;;;;;;;-11.10;64.83;99006.69;5030175;28;20045;-63
2021/01/15 00:18:31;;;;;;;20.52;8.07;;;;;;;-11.05;65.12;99006.66;5030527;28;20120;-65
2021/01/15 00:20:57;;;;;;;17.10;7.65;;;;;;;-11.11;65.35;99000.63;5030794;28;20044;-63
2021/01/15 00:23:22;;;;;;;19.83;8.32;;;;;;;-11.01;65.04;99021.28;5030318;28;20551;-53
2021/01/15 00:25:51;;;;;;;21.10;7.93;;;;;;;-11.05;65.22;99015.25;5029452;28;20038;-65
2021/01/15 00:28:16;;;;;;;18.98;8.63;;;;;;;-11.08;64.82;99024.78;5030598;28;20123;-63
2021/01/15 00:30:42;;;;;;;17.77;7.82;;;;;;;-11.10;65.24;99017.03;5030677;28;20068;-66
2021/01/15 00:33:07;;;;;;;21.60;8.30;;;;;;;-11.11;65.40;99005.81;5030001;28;20042;-65
2021/01/15 00:35:33;;;;;;;17.05;8.07;;;;;;;-11.13;65.72;99010.13;5029793;28;20369;-65
2021/01/15 00:37:58;;;;;;;19.83;7.97;;;;;;;-11.24;65.49;98999.00;5030331;28;20022;-64
2021/01/15 00:40:24;;;;;;;19.25;8.40;;;;;;;-11.25;65.50;98994.72;5030235;28;20094;-60
2021/01/15 00:42:49;;;;;;;20.65;8.13;;;;;;;-11.34;65.50;98999.91;5024803;28;20409;-65
2021/01/15 00:45:16;;;;;;;21.55;8.80;;;;;;;-11.33;65.49;98988.69;5029683;28;20167;-63
2021/01/15 00:47:44;;;;;;;19.38;9.00;;;;;;;-11.31;65.14;99003.34;5030360;28;20099;-65
2021/01/15 00:50:11;;;;;;;21.27;9.35;;;;;;;-12.04;64.98;98884.94;5030498;28;20080;-64
2021/01/15 00:52:37;;;;;;;22.92;9.13;;;;;;;-11.29;65.26;99013.69;5030085;28;20062;-66
2021/01/15 00:55:04;;;;;;;18.33;8.60;;;;;;;-11.30;65.41;99017.13;5027807;28;20448;-64
2021/01/15 00:57:29;;;;;;;20.52;8.25;;;;;;;-11.33;65.52;99024.88;5029758;28;20033;-63
2021/01/15 00:59:55;;;;;;;20.52;8.65;;;;;;;-11.32;65.69;99018.88;5030185;28;20034;-63
2021/01/15 01:02:20;;;;;;;19.95;8.48;;;;;;;-11.35;65.64;99016.28;5029666;28;20095;-64
2021/01/15 01:04:46;;;;;;;21.73;8.48;;;;;;;-11.40;65.58;99019.75;5029495;28;20033;-64
2021/01/15 01:07:11;;;;;;;20.40;8.75;;;;;;;-11.41;66.13;99032.69;5030055;28;20096;-65
2021/01/15 01:09:37;;;;;;;15.43;7.20;;;;;;;-11.44;65.71;99025.81;5029213;28;20044;-63
2021/01/15 01:12:02;;;;;;;20.80;8.10;;;;;;;-11.47;65.70;99018.06;5029483;28;20029;-63
2021/01/15 01:14:28;;;;;;;21.55;8.02;;;;;;;-11.49;65.54;99011.19;5029423;28;20472;-65
2021/01/15 01:16:53;;;;;;;19.25;8.35;;;;;;;-11.53;66.08;99007.78;5030034;28;20116;-63
2021/01/15 01:19:19;;;;;;;17.45;7.32;;;;;;;-12.31;65.66;98896.22;5029245;28;20167;-64
2021/01/15 01:21:44;;;;;;;18.27;8.13;;;;;;;-12.02;65.77;98973.53;5029622;28;20114;-65
2021/01/15 01:24:10;;;;;;;18.50;7.88;;;;;;;-11.66;65.70;99024.16;5029417;28;20033;-61
2021/01/15 01:26:35;;;;;;;19.45;7.72;;;;;;;-11.62;65.79;99028.44;5029185;28;20036;-64
2021/01/15 01:29:01;;;;;;;18.13;7.85;;;;;;;-11.60;65.63;99032.75;5029620;28;20544;-64
2021/01/15 01:31:26;;;;;;;21.77;7.78;;;;;;;-11.57;66.01;99042.22;5029312;28;20088;-62
2021/01/15 01:33:51;;;;;;;18.63;7.97;;;;;;;-11.57;65.65;99044.81;5030024;28;20044;-63
2021/01/15 01:36:17;;;;;;;19.60;7.50;;;;;;;-11.56;65.96;99033.63;5029086;28;20025;-62
2021/01/15 01:38:42;;;;;;;17.90;7.47;;;;;;;-11.55;65.53;99023.25;5029112;28;20049;-61
2021/01/15 01:41:09;;;;;;;20.27;8.07;;;;;;;-11.58;65.49;99023.28;5029262;28;20128;-62
2021/01/15 01:43:35;;;;;;;19.30;8.18;;;;;;;-11.73;65.74;98982.00;5029076;28;20033;-65
2021/01/15 01:46:07;;;;;;;20.33;8.30;;;;;;;-11.56;65.12;99008.63;5029246;28;20120;-64
2021/01/15 01:48:38;;;;;;;14.13;6.97;;;;;;;-11.62;65.25;99018.13;5029453;28;20072;-65
2021/01/15 01:51:04;;;;;;;19.05;8.35;;;;;;;-11.63;66.14;99011.22;5029233;28;20030;-63
2021/01/15 01:53:31;;;;;;;19.55;8.07;;;;;;;-11.68;65.82;99029.34;5028810;28;20038;-64
2021/01/15 01:56:00;;;;;;;20.45;7.47;;;;;;;-11.72;65.80;99038.81;5029085;28;20046;-58
2021/01/15 01:58:26;;;;;;;15.73;7.90;;;;;;;-11.82;66.09;99021.63;5029805;28;20038;-65
2021/01/15 02:00:57;;;;;;;20.40;8.45;;;;;;;-11.78;65.39;99037.97;5029132;28;20037;-64
2021/01/15 02:03:23;;;;;;;24.02;8.60;;;;;;;-11.83;65.75;99063.78;5028868;28;20518;-63
2021/01/15 02:05:48;;;;;;;23.48;8.85;;;;;;;-11.85;66.20;99052.59;5030279;28;20116;-63
2021/01/15 02:08:14;;;;;;;19.10;7.45;;;;;;;-11.95;65.81;99048.34;5032965;28;20045;-63
2021/01/15 02:10:59;;;;;;;20.98;8.38;;;;;;;-11.87;64.97;99052.63;5032665;28;20401;-62
2021/01/15 02:13:40;;;;;;;24.88;7.93;;;;;;;-11.90;65.34;99062.09;5032961;28;20548;-63
2021/01/15 02:16:09;;;;;;;18.23;8.23;;;;;;;-11.98;65.85;99052.66;5033427;28;20029;-64
2021/01/15 02:18:54;;;;;;;18.13;8.05;;;;;;;-12.04;66.08;99057.88;5032450;28;20115;-64
2021/01/15 02:22:06;;;;;;;18.17;7.57;;;;;;;-12.11;64.99;99061.28;5032211;28;20049;-63
2021/01/15 02:24:34;;;;;;;16.67;7.13;;;;;;;-12.19;65.52;99068.19;5032980;28;20042;-64
2021/01/15 02:27:14;;;;;;;18.10;6.82;;;;;;;-12.22;66.11;99065.63;5032939;28;20041;-63
2021/01/15 02:29:55;;;;;;;20.23;7.45;;;;;;;-12.29;65.50;99070.78;5017269;28;20449;-63
2021/01/15 02:32:46;;;;;;;18.10;6.80;;;;;;;-12.48;65.03;99023.47;5032578;28;20071;-64
2021/01/15 02:35:29;;;;;;;15.38;6.88;;;;;;;-12.45;64.73;99030.38;5032643;28;20120;-63
2021/01/15 02:38:09;;;;;;;16.10;6.55;;;;;;;-12.42;65.78;99051.88;5032552;28;20061;-64
2021/01/15 02:41:10;;;;;;;18.48;7.68;;;;;;;-12.45;65.25;99043.25;5032025;28;20034;-64
2021/01/15 02:43:37;;;;;;;18.20;7.25;;;;;;;-12.89;66.58;99004.56;5032396;28;20539;-64
2021/01/15 02:46:05;;;;;;;20.52;7.63;;;;;;;-12.65;66.33;99035.53;5032699;28;20175;-64
2021/01/15 02:48:31;;;;;;;20.15;7.95;;;;;;;-12.60;66.67;99039.81;5031665;28;20037;-64
2021/01/15 02:51:00;;;;;;;16.05;7.65;;;;;;;-12.52;66.28;99044.97;5032519;28;20037;-64
2021/01/15 02:53:25;;;;;;;17.77;7.55;;;;;;;-12.73;66.86;99012.31;5032302;28;20033;-64
2021/01/15 02:55:51;;;;;;;18.38;7.10;;;;;;;-12.55;66.79;99078.50;5031127;28;20029;-63
2021/01/15 02:58:16;;;;;;;19.17;7.90;;;;;;;-12.55;66.73;99063.03;5031563;28;20438;-62
2021/01/15 03:00:42;;;;;;;19.05;7.70;;;;;;;-12.57;66.56;99060.44;5027223;28;20045;-63
2021/01/15 03:03:25;;;;;;;19.35;6.68;;;;;;;-12.55;65.83;99071.59;5028686;28;20038;-65
2021/01/15 03:05:57;;;;;;;16.58;6.78;;;;;;;-12.53;65.80;99094.00;5032094;28;20037;-64
2021/01/15 03:08:25;;;;;;;15.70;7.40;;;;;;;-13.37;66.02;98919.50;5031307;28;20104;-64
2021/01/15 03:10:52;;;;;;;17.65;7.20;;;;;;;-12.60;66.37;99068.19;5031639;28;20146;-63
2021/01/15 03:13:19;;;;;;;16.10;6.25;;;;;;;-12.61;66.73;99081.94;5031457;28;20039;-64
2021/01/15 03:15:47;;;;;;;20.60;8.10;;;;;;;-12.64;66.12;99083.66;5031519;28;20061;-64
2021/01/15 03:18:14;;;;;;;21.52;8.27;;;;;;;-12.67;66.29;99066.47;5030797;28;20034;-61
2021/01/15 03:20:40;;;;;;;19.52;7.57;;;;;;;-12.67;66.54;99086.22;5031377;28;20049;-63
2021/01/15 03:23:06;;;;;;;17.70;6.97;;;;;;;-12.67;66.67;99081.94;5031568;28;20405;-62
2021/01/15 03:25:31;;;;;;;15.60;7.00;;;;;;;-12.65;66.46;99074.22;5031401;28;20033;-61
2021/01/15 03:27:57;;;;;;;16.30;7.55;;;;;;;-12.71;66.22;99069.91;5031455;28;20124;-62
2021/01/15 03:30:30;;;;;;;18.55;7.05;;;;;;;-12.63;65.82;99095.69;5031467;28;20037;-63
2021/01/15 03:32:58;;;;;;;19.77;8.02;;;;;;;-12.63;65.97;99088.81;5031416;28;20033;-60
2021/01/15 03:35:25;;;;;;;19.35;7.32;;;;;;;-12.69;65.96;99099.13;5030998;28;20473;-63
2021/01/15 03:37:59;;;;;;;17.60;6.95;;;;;;;-12.61;65.35;99101.72;5031145;28;20592;-62
2021/01/15 03:40:27;;;;;;;17.95;7.63;;;;;;;-12.60;66.42;99117.16;5030816;28;20122;-64
2021/01/15 03:42:53;;;;;;;18.58;7.43;;;;;;;-12.73;66.02;99107.72;5030849;28;20079;-63
2021/01/15 03:45:19;;;;;;;17.38;7.05;;;;;;;-12.56;66.35;99129.22;5031582;28;20451;-63
2021/01/15 03:47:44;;;;;;;17.20;7.07;;;;;;;-12.52;66.38;99134.41;5030909;28;20025;-62
2021/01/15 03:50:11;;;;;;;20.95;7.78;;;;;;;-12.51;65.87;99128.38;5030650;28;20508;-55
2021/01/15 03:52:36;;;;;;;18.90;7.28;;;;;;;-12.62;65.63;99128.34;5031396;28;20083;-63
2021/01/15 03:55:03;;;;;;;17.63;7.05;;;;;;;-13.35;65.71;99007.91;5030906;28;20037;-52
2021/01/15 03:57:28;;;;;;;20.17;7.70;;;;;;;-12.60;65.70;99150.69;5030807;28;20045;-65
2021/01/15 03:59:54;;;;;;;24.08;7.82;;;;;;;-12.57;65.43;99147.28;5030786;28;20026;-65
2021/01/15 04:02:19;;;;;;;18.00;8.02;;;;;;;-12.62;65.79;99149.00;5030594;28;20041;-63
2021/01/15 04:04:48;;;;;;;21.50;8.60;;;;;;;-12.62;65.99;99143.84;5030589;28;20030;-64
2021/01/15 04:07:20;;;;;;;14.43;6.80;;;;;;;-12.66;65.86;99163.56;5026826;28;20033;-65
2021/01/15 04:09:46;;;;;;;21.85;8.38;;;;;;;-12.93;65.86;99107.63;5031232;28;20036;-64
2021/01/15 04:12:12;;;;;;;15.18;7.43;;;;;;;-12.71;65.68;99162.72;5031044;28;20033;-64
2021/01/15 04:14:40;;;;;;;23.83;9.25;;;;;;;-12.71;65.75;99140.34;5016303;28;20034;-66
2021/01/15 04:17:06;;;;;;;22.20;8.02;;;;;;;-12.72;65.84;99141.22;5016958;28;20099;-64
2021/01/15 04:19:32;;;;;;;17.92;7.82;;;;;;;-12.73;65.81;99149.81;5031160;28;20084;-64
2021/01/15 04:21:58;;;;;;;19.17;7.95;;;;;;;-12.72;66.07;99140.38;5030790;28;20564;-64
2021/01/15 04:24:24;;;;;;;20.52;7.82;;;;;;;-12.94;65.54;99124.84;5029920;28;20082;-64
2021/01/15 04:26:57;;;;;;;15.68;7.18;;;;;;;-12.80;65.09;99142.91;5030166;28;20068;-63
2021/01/15 04:29:23;;;;;;;16.92;7.07;;;;;;;-12.90;65.84;99123.09;5030556;28;20477;-65
2021/01/15 04:31:49;;;;;;;22.30;8.10;;;;;;;-12.97;66.13;99132.56;5030650;28;20030;-64
2021/01/15 04:34:15;;;;;;;17.38;7.72;;;;;;;-12.94;66.00;99130.00;5029824;28;20034;-65
2021/01/15 04:36:41;;;;;;;19.05;7.28;;;;;;;-13.01;65.95;99143.72;5030096;28;20036;-62
2021/01/15 04:39:07;;;;;;;17.08;7.40;;;;;;;-13.01;66.10;99148.88;5030146;28;20061;-63
2021/01/15 04:41:33;;;;;;;20.75;7.82;;;;;;;-13.05;66.18;99131.66;5030927;28;20041;-64
2021/01/15 04:44:00;;;;;;;18.10;7.97;;;;;;;-13.34;66.00;99101.47;5030074;28;20455;-66
2021/01/15 04:46:27;;;;;;;21.45;7.57;;;;;;;-13.12;66.32;99157.41;5029665;28;20083;-64
2021/01/15 04:48:53;;;;;;;16.17;7.00;;;;;;;-13.14;66.22;99143.66;5030196;28;20485;-64
2021/01/15 04:51:24;;;;;;;24.17;8.15;;;;;;;-13.25;65.84;99137.59;5030316;28;20520;-65
2021/01/15 04:54:00;;;;;;;16.67;7.40;;;;;;;-13.23;66.01;99148.78;5030002;28;20108;-64
2021/01/15 04:56:39;;;;;;;20.13;7.90;;;;;;;-13.23;65.70;99168.50;5029650;28;20029;-63
2021/01/15 04:59:08;;;;;;;19.52;8.00;;;;;;;-13.25;66.23;99165.94;5030016;28;20053;-53
2021/01/15 05:01:42;;;;;;;16.25;6.97;;;;;;;-13.26;66.48;99148.75;5014208;28;20041;-64
2021/01/15 05:04:19;;;;;;;16.77;5.90;;;;;;;-13.23;65.82;99137.59;5029177;28;20045;-63
2021/01/15 05:06:51;;;;;;;16.83;6.78;;;;;;;-13.26;65.96;99138.47;5029271;28;20036;-62
2021/01/15 05:09:22;;;;;;;20.85;7.95;;;;;;;-13.23;66.16;99153.94;5029263;28;20084;-63
2021/01/15 05:11:48;;;;;;;22.25;7.40;;;;;;;-13.27;66.10;99142.72;5030025;28;20106;-62
2021/01/15 05:14:15;;;;;;;20.00;7.32;;;;;;;-13.36;66.21;99131.53;5028316;28;20047;-61
2021/01/15 05:16:43;;;;;;;24.90;6.88;;;;;;;-13.27;66.14;99144.44;5029481;28;20494;-63
2021/01/15 05:19:10;;;;;;;14.20;7.43;;;;;;;-13.38;66.30;99122.94;5029554;28;20059;-61
2021/01/15 05:21:37;;;;;;;20.15;7.90;;;;;;;-13.32;66.43;99139.28;5029551;28;20033;-64
2021/01/15 05:24:04;;;;;;;17.05;7.40;;;;;;;-13.33;66.35;99142.72;5029493;28;20127;-64
2021/01/15 05:26:33;;;;;;;19.38;7.10;;;;;;;-13.29;66.37;99153.88;5029326;28;20045;-65
2021/01/15 05:29:03;;;;;;;16.05;6.60;;;;;;;-13.49;66.51;99120.34;5028984;28;20041;-63
2021/01/15 05:31:46;;;;;;;14.20;6.85;;;;;;;-13.34;64.87;99151.28;5029348;28;20036;-64
2021/01/15 05:34:12;;;;;;;15.95;6.63;;;;;;;-13.87;65.63;99063.47;5028988;28;20048;-62
2021/01/15 05:36:37;;;;;;;14.48;6.65;;;;;;;-13.25;65.65;99168.50;5029166;28;20034;-62
2021/01/15 05:39:18;;;;;;;17.52;7.20;;;;;;;-13.22;65.07;99165.06;5029627;28;20052;-65
2021/01/15 05:41:46;;;;;;;14.55;6.07;;;;;;;-13.17;65.60;99181.41;5025486;28;20056;-62
2021/01/15 05:44:24;;;;;;;16.52;6.80;;;;;;;-13.13;64.79;99168.56;5022207;28;20044;-62
2021/01/15 05:46:49;;;;;;;15.10;6.90;;;;;;;-13.15;65.70;99174.53;5033266;28;20037;-63
2021/01/15 05:49:15;;;;;;;15.70;6.38;;;;;;;-13.12;65.48;99169.44;5033556;28;20041;-64
2021/01/15 05:51:42;;;;;;;15.85;6.68;;;;;;;-13.35;65.64;99122.94;5033095;28;20103;-63
2021/01/15 05:54:09;;;;;;;15.90;6.53;;;;;;;-13.01;65.60;99182.38;5032790;28;20079;-50
2021/01/15 05:56:40;;;;;;;17.45;7.18;;;;;;;-12.98;64.94;99167.75;5032233;28;20480;-64
2021/01/15 05:59:09;;;;;;;16.10;7.13;;;;;;;-12.94;65.38;99172.94;5033346;28;20047;-61
2021/01/15 06:01:49;;;;;;;17.50;7.38;;;;;;;-12.90;64.39;99174.66;5032629;28;20041;-65
2021/01/15 06:04:32;;;;;;;18.92;8.00;;;;;;;-12.90;65.32;99180.69;5024078;28;20034;-65
2021/01/15 06:07:09;;;;;;;16.45;6.93;;;;;;;-12.80;64.68;99185.88;5028504;28;20127;-60
2021/01/15 06:09:41;;;;;;;17.33;7.00;;;;;;;-14.16;64.74;98960.44;5016733;28;20381;-64
2021/01/15 06:12:13;;;;;;;21.67;7.85;;;;;;;-12.73;64.80;99216.00;5032800;28;20463;-64
2021/01/15 06:14:57;;;;;;;17.65;7.80;;;;;;;-12.71;65.23;99188.50;5033277;28;20127;-70
2021/01/15 06:17:24;;;;;;;24.38;9.43;;;;;;;-12.81;64.67;99187.59;5031992;28;20044;-60
2021/01/15 06:19:54;;;;;;;23.85;8.50;;;;;;;-12.73;65.08;99195.38;5032592;28;20350;-63
2021/01/15 06:22:44;;;;;;;24.45;7.90;;;;;;;-12.75;63.60;99202.25;5032127;28;20037;-60
2021/01/15 06:25:29;;;;;;;18.92;7.78;;;;;;;-12.71;64.32;99214.28;5033133;28;20033;-62
2021/01/15 06:27:57;;;;;;;15.80;7.82;;;;;;;-12.70;64.85;99228.88;5032907;28;20041;-59
2021/01/15 06:30:28;;;;;;;21.10;8.13;;;;;;;-12.67;64.47;99235.75;5032369;28;20094;-61
2021/01/15 06:32:55;;;;;;;23.10;7.93;;;;;;;-12.70;64.78;99229.75;5032317;28;20382;-61
2021/01/15 06:35:26;;;;;;;19.90;8.35;;;;;;;-12.66;64.29;99235.78;5032868;28;20037;-63
2021/01/15 06:37:59;;;;;;;22.92;7.80;;;;;;;-12.88;64.18;99199.59;5032413;28;20048;-61
2021/01/15 06:40:38;;;;;;;27.52;9.00;;;;;;;-12.61;64.33;99248.69;5032059;28;20053;-62
2021/01/15 06:43:06;;;;;;;17.00;7.57;;;;;;;-12.74;64.30;99216.84;5031245;28;20034;-56
2021/01/15 06:45:45;;;;;;;27.30;9.00;;;;;;;-12.36;63.28;99244.47;5032762;28;20037;-63
2021/01/15 06:48:18;;;;;;;22.77;8.65;;;;;;;-12.19;64.18;99199.78;5031043;28;20123;-61
2021/01/15 06:50:46;;;;;;;22.00;8.95;;;;;;;-11.15;64.50;99229.00;5031645;28;20404;-62
2021/01/15 06:53:19;;;;;;;16.88;7.53;;;;;;;-9.59;61.56;99235.97;5026886;28;20125;-64
2021/01/15 06:55:55;;;;;;;25.50;9.07;;;;;;;-8.04;58.11;99225.56;5032107;28;20536;-62
2021/01/15 06:58:21;;;;;;;21.98;9.27;;;;;;;-6.73;57.48;99203.41;5031205;28;20499;-62
2021/01/15 07:01:02;;;;;;;24.98;9.07;;;;;;;-5.62;53.49;99213.94;5030901;28;20489;-63
2021/01/15 07:03:55;;;;;;;22.98;9.48;;;;;;;-4.61;50.91;99216.56;5031463;28;20033;-62
2021/01/15 07:06:28;;;;;;;21.33;10.85;;;;;;;-3.91;51.22;99196.19;5031272;28;20042;-61
2021/01/15 07:08:55;;;;;;;21.50;9.60;;;;;;;-3.22;52.77;99207.09;5029837;28;20049;-62
2021/01/15 07:11:23;;;;;;;23.38;10.35;;;;;;;-2.68;51.77;99204.34;5031292;28;20037;-63
2021/01/15 07:13:53;;;;;;;24.98;10.63;;;;;;;-2.25;50.14;99221.09;5031583;28;20117;-62
2021/01/15 07:16:28;;;;;;;23.02;10.68;;;;;;;-1.88;48.54;99198.72;5030483;28;20033;-63
2021/01/15 07:19:08;;;;;;;28.58;11.85;;;;;;;-1.99;48.11;99211.38;5030805;28;20405;-61
2021/01/15 07:22:06;;;;;;;26.58;11.50;;;;;;;-2.21;46.47;99188.59;5045904;28;20564;-64
2021/01/15 07:24:34;;;;;;;24.00;10.43;;;;;;;-2.21;50.90;99193.00;5030534;28;20064;-62
2021/01/15 07:27:00;;;;;;;25.23;10.75;;;;;;;-2.09;51.11;99202.19;5031415;28;20546;-63
2021/01/15 07:29:29;;;;;;;22.83;11.50;;;;;;;-1.75;50.11;99179.84;5030993;28;20145;-61
2021/01/15 07:32:02;;;;;;;28.27;11.73;;;;;;;-1.77;45.52;99190.41;5030697;28;20124;-62
2021/01/15 07:34:31;;;;;;;31.23;11.63;;;;;;;-1.60;47.85;99194.97;5030830;28;20033;-62
2021/01/15 07:36:56;;;;;;;26.70;11.88;;;;;;;-1.75;48.88;99206.09;5031200;28;20056;-62
2021/01/15 07:39:22;;;;;;;29.08;12.00;;;;;;;-2.51;48.73;99177.53;5029895;28;20457;-62
2021/01/15 07:41:52;;;;;;;25.60;12.35;;;;;;;-3.44;49.96;99202.56;5023052;28;20045;-62
2021/01/15 07:44:21;;;;;;;28.80;11.55;;;;;;;-4.44;49.99;99196.06;5023156;28;20026;-63
2021/01/15 07:46:47;;;;;;;34.45;12.95;;;;;;;-5.09;51.92;99202.19;5020779;28;20362;-63
2021/01/15 07:49:13;;;;;;;33.22;12.25;;;;;;;-5.68;52.65;99214.09;5022967;28;20029;-61
2021/01/15 07:51:39;;;;;;;35.50;13.57;;;;;;;-6.20;53.47;99242.22;5024289;28;20033;-55
2021/01/15 07:54:04;;;;;;;38.97;13.25;;;;;;;-6.75;54.73;99228.59;5022213;28;20033;-62
2021/01/15 07:56:31;;;;;;;36.97;14.35;;;;;;;-7.13;55.76;99250.09;5024145;28;20041;-62
2021/01/15 07:58:57;;;;;;;34.53;12.35;;;;;;;-7.64;55.45;99249.22;5030693;28;20516;-64
2021/01/15 08:01:23;;;;;;;34.83;12.20;;;;;;;-7.76;56.83;99254.59;5031338;28;20041;-63
2021/01/15 08:03:54;;;;;;;28.13;11.30;;;;;;;-7.93;55.75;99258.31;5030327;28;20468;-60
2021/01/15 08:06:20;;;;;;;27.88;11.50;;;;;;;-8.74;57.36;99149.50;5030475;28;20036;-65
2021/01/15 08:08:57;;;;;;;25.45;10.52;;;;;;;-8.16;53.80;99270.75;5023483;28;20186;-58
2021/01/15 08:11:23;;;;;;;24.20;9.65;;;;;;;-8.32;58.00;99267.47;5023511;28;20057;-71
2021/01/15 08:13:48;;;;;;;27.42;10.98;;;;;;;-8.32;58.21;99257.09;5030616;28;20029;-68
2021/01/15 08:16:14;;;;;;;24.48;10.93;;;;;;;-8.42;57.86;99248.59;5029720;28;20492;-64
2021/01/15 08:18:41;;;;;;;28.92;10.93;;;;;;;-8.62;58.33;99252.31;5030357;28;20040;-62
2021/01/15 08:21:07;;;;;;;29.73;11.73;;;;;;;-8.83;58.39;99253.38;5030985;28;20052;-60
2021/01/15 08:23:33;;;;;;;25.83;11.13;;;;;;;-9.00;58.68;99249.25;5030424;28;20404;-62
2021/01/15 08:26:01;;;;;;;34.45;14.38;;;;;;;-8.99;58.29;99253.56;5029835;28;20033;-61
2021/01/15 08:28:27;;;;;;;43.53;15.80;;;;;;;-9.03;58.54;99244.09;5023751;28;20424;-61
2021/01/15 08:31:00;;;;;;;33.60;13.90;;;;;;;-9.01;58.05;99255.31;5030404;28;20041;-62
2021/01/15 08:33:26;;;;;;;33.85;13.88;;;;;;;-9.07;58.73;99264.88;5013745;28;20029;-63
2021/01/15 08:36:03;;;;;;;40.00;16.02;;;;;;;-9.10;56.94;99273.53;5029711;28;20038;-62
2021/01/15 08:38:37;;;;;;;44.58;15.98;;;;;;;-9.09;57.74;99285.63;5029764;28;20050;-61
2021/01/15 08:41:24;;;;;;;45.10;17.60;;;;;;;-9.10;56.88;99271.81;5030122;28;20466;-63
2021/01/15 08:43:53;;;;;;;44.05;17.98;;;;;;;-9.18;58.85;99268.41;5029910;28;20064;-61
2021/01/15 08:46:20;;;;;;;49.92;18.65;;;;;;;-9.08;59.17;99289.94;5029380;28;20075;-61
2021/01/15 08:48:47;;;;;;;44.55;17.60;;;;;;;-9.16;58.60;99276.19;5029882;28;20057;-62
2021/01/15 08:51:19;;;;;;;44.35;18.83;;;;;;;-9.10;58.12;99284.78;5030234;28;20089;-60
2021/01/15 08:54:04;;;;;;;49.13;19.63;;;;;;;-9.05;58.02;99299.44;5029897;28;20030;-60
2021/01/15 08:56:43;;;;;;;49.80;18.90;;;;;;;-9.02;56.37;99263.97;5029764;28;20167;-61
2021/01/15 08:59:37;;;;;;;43.15;18.27;;;;;;;-8.93;56.00;99281.16;5029808;28;20034;-59
2021/01/15 09:02:06;;;;;;;41.22;17.40;;;;;;;-8.86;57.49;99306.19;5029025;28;20501;-62
2021/01/15 09:04:35;;;;;;;43.03;16.83;;;;;;;-8.83;57.61;99274.13;5029237;28;20175;-63
2021/01/15 09:07:07;;;;;;;41.20;16.52;;;;;;;-8.80;57.85;99274.09;5029880;28;20048;-62
2021/01/15 09:09:34;;;;;;;41.40;16.90;;;;;;;-8.82;57.69;99284.53;5029378;28;20037;-62
2021/01/15 09:12:05;;;;;;;43.25;16.63;;;;;;;-8.78;57.19;99282.75;5028122;28;20056;-63
2021/01/15 09:14:35;;;;;;;41.05;16.42;;;;;;;-8.82;58.14;99281.91;5029697;28;20037;-63
2021/01/15 09:17:02;;;;;;;42.00;16.17;;;;;;;-8.97;57.96;99248.34;5028762;28;20520;-61
2021/01/15 09:19:27;;;;;;;47.17;17.15;;;;;;;-8.71;57.97;99279.22;5029216;28;20453;-60
2021/01/15 09:22:00;;;;;;;41.88;15.35;;;;;;;-8.61;57.38;99267.00;5029444;28;20095;-61
2021/01/15 09:24:30;;;;;;;40.15;16.23;;;;;;;-8.68;58.32;99262.72;5021544;28;20037;-56
2021/01/15 09:27:04;;;;;;;40.10;15.98;;;;;;;-8.67;57.02;99257.53;5027666;28;20384;-59
2021/01/15 09:29:30;;;;;;;33.75;15.70;;;;;;;-8.81;58.48;99226.56;5016438;28;20061;-57
2021/01/15 09:31:56;;;;;;;40.95;16.42;;;;;;;-8.67;58.12;99233.34;5028863;28;20071;-63
2021/01/15 09:34:23;;;;;;;35.65;16.17;;;;;;;-8.64;57.60;99248.88;5028382;28;20051;-55
2021/01/15 09:36:50;;;;;;;40.38;16.65;;;;;;;-8.74;57.92;99250.72;5028879;28;20041;-61
2021/01/15 09:39:18;;;;;;;45.75;17.40;;;;;;;-8.78;57.99;99241.25;5025109;28;20127;-58
2021/01/15 09:41:48;;;;;;;36.72;15.77;;;;;;;-9.17;57.72;99189.75;5028008;28;20045;-56
2021/01/15 09:44:16;;;;;;;41.70;16.70;;;;;;;-8.90;58.42;99231.84;5026044;28;20053;-56
2021/01/15 09:46:42;;;;;;;38.35;15.30;;;;;;;-8.80;58.52;99249.03;5028753;28;20048;-60
2021/01/15 09:49:08;;;;;;;40.50;17.15;;;;;;;-8.73;58.28;99238.56;5028997;28;20525;-54
2021/01/15 09:51:34;;;;;;;40.13;17.15;;;;;;;-8.72;57.97;99243.75;5028555;28;20036;-61
2021/01/15 09:53:59;;;;;;;41.65;17.48;;;;;;;-8.82;58.58;99235.22;5028478;28;20037;-59
2021/01/15 09:56:26;;;;;;;42.53;16.55;;;;;;;-8.88;58.54;99243.06;5028721;28;20128;-58
2021/01/15 09:58:52;;;;;;;40.80;17.15;;;;;;;-8.84;58.85;99249.94;5028452;28;20570;-55
2021/01/15 10:01:18;;;;;;;44.92;18.15;;;;;;;-9.10;59.07;99201.81;5028174;28;20053;-54
2021/01/15 10:03:44;;;;;;;46.53;18.95;;;;;;;-8.83;58.83;99241.28;5027055;28;20602;-60
2021/01/15 10:06:16;;;;;;;43.88;17.40;;;;;;;-9.19;57.99;99157.78;5028445;28;20030;-62
2021/01/15 10:08:42;;;;;;;45.05;17.45;;;;;;;-8.49;58.40;99244.34;5028561;28;20029;-54
2021/01/15 10:11:08;;;;;;;43.38;17.83;;;;;;;-8.62;58.07;99230.66;5027804;28;20121;-58
2021/01/15 10:13:34;;;;;;;50.55;18.33;;;;;;;-9.09;57.62;99128.31;5026843;28;20113;-56
2021/01/15 10:16:05;;;;;;;47.22;18.67;;;;;;;-8.25;57.00;99246.59;5029003;28;20040;-56
2021/01/15 10:18:31;;;;;;;46.03;18.58;;;;;;;-8.56;58.09;99194.25;5028505;28;20033;-58
2021/01/15 10:20:56;;;;;;;42.35;18.33;;;;;;;-8.04;58.01;99260.19;5027659;28;20460;-55
2021/01/15 10:23:22;;;;;;;46.85;19.50;;;;;;;-7.94;57.66;99242.72;5028358;28;20044;-59
2021/01/15 10:25:47;;;;;;;43.05;19.02;;;;;;;-7.86;57.90;99258.22;5027350;28;20029;-61
2021/01/15 10:28:13;;;;;;;43.38;19.50;;;;;;;-7.81;57.51;99252.06;5031374;28;20436;-61
2021/01/15 10:30:38;;;;;;;46.20;19.67;;;;;;;-7.77;57.74;99242.47;5031205;28;20037;-62
2021/01/15 10:33:04;;;;;;;48.47;19.45;;;;;;;-7.70;57.61;99254.50;5029400;28;20037;-61
2021/01/15 10:35:29;;;;;;;47.45;18.55;;;;;;;-7.82;56.99;99231.28;5029802;28;20040;-61
2021/01/15 10:37:54;;;;;;;50.60;20.60;;;;;;;-7.78;57.45;99257.22;5020538;28;20029;-62
2021/01/15 10:40:20;;;;;;;46.03;19.88;;;;;;;-7.85;57.83;99255.56;5028814;28;20053;-61
2021/01/15 10:42:46;;;;;;;44.05;19.77;;;;;;;-7.75;58.01;99256.31;5028641;28;20033;-62
2021/01/15 10:45:13;;;;;;;44.45;18.42;;;;;;;-7.61;57.73;99234.44;5029624;28;20443;-60
2021/01/15 10:47:42;;;;;;;45.58;17.77;;;;;;;-7.47;56.60;99240.28;5031497;28;20396;-65
2021/01/15 10:50:09;;;;;;;46.60;19.52;;;;;;;-7.60;56.72;99213.59;5031183;28;20550;-67
2021/01/15 10:52:35;;;;;;;45.92;19.33;;;;;;;-7.65;57.66;99228.44;5023169;28;20091;-67
2021/01/15 10:55:02;;;;;;;46.47;19.20;;;;;;;-7.67;57.55;99231.06;5029451;28;20124;-66
2021/01/15 10:57:29;;;;;;;44.92;18.25;;;;;;;-7.61;57.76;99263.03;5028156;28;20049;-66
2021/01/15 10:59:55;;;;;;;44.35;17.35;;;;;;;-7.52;57.72;99268.97;5022096;28;20038;-66
2021/01/15 11:02:20;;;;;;;47.13;19.02;;;;;;;-7.45;57.23;99258.44;5024683;28;20517;-70
2021/01/15 11:04:46;;;;;;;42.42;17.70;;;;;;;-7.51;57.46;99249.00;5031120;28;20045;-74
2021/01/15 11:07:11;;;;;;;43.42;19.08;;;;;;;-7.51;56.99;99275.00;5031611;28;20053;-62
2021/01/15 11:09:36;;;;;;;45.67;19.75;;;;;;;-7.88;57.43;99253.03;5030805;28;20032;-67
2021/01/15 11:12:03;;;;;;;44.42;20.77;;;;;;;-7.97;57.46;99248.81;5031071;28;20124;-73
2021/01/15 11:14:28;;;;;;;41.67;18.92;;;;;;;-7.90;58.28;99277.34;5030769;28;20037;-66
2021/01/15 11:16:55;;;;;;;49.63;20.52;;;;;;;-8.08;58.02;99264.59;5027293;28;20038;-65
2021/01/15 11:19:20;;;;;;;40.67;18.33;;;;;;;-8.15;58.22;99277.66;5031199;28;20102;-68
2021/01/15 11:21:46;;;;;;;48.55;19.85;;;;;;;-8.33;58.00;99274.41;5030822;28;20477;-54
2021/01/15 11:24:11;;;;;;;45.05;18.85;;;;;;;-8.21;58.13;99278.59;5024144;28;20033;-60
2021/01/15 11:26:37;;;;;;;44.13;19.20;;;;;;;-8.15;58.34;99262.94;5031794;28;20079;-62